Time;durP1;ratioP1;P1;durP2;ratioP2;P2;SDS_P1;SDS_P2;PMS_P1;PMS_P2;Temp;Humidity;BMP_temperature;BMP_pressure;BME280_temperature;BME280_humidity;BME280_pressure;Samples;Min_cycle;Max_cycle;Signal;HPM_P1;HPM_P2
2023/05/11 00:01:04;;;;;;;4.93;4.53;;;;;;;14.04;62.45;94785.66;5132915;27;20185;-44
2023/05/11 00:03:31;;;;;;;5.57;4.57;;;;;;;13.99;62.55;94787.91;5132556;27;20229;-45
2023/05/11 00:05:58;;;;;;;5.10;4.70;;;;;;;14.02;62.40;94792.72;5133062;27;20196;-46
2023/05/11 00:08:24;;;;;;;4.50;4.10;;;;;;;13.99;62.50;94784.53;5133224;27;20203;-45
2023/05/11 00:10:53;;;;;;;6.10;4.90;;;;;;;13.97;62.46;94786.44;5132982;27;20204;-44
2023/05/11 00:13:20;;;;;;;4.87;4.43;;;;;;;13.97;62.42;94789.81;5132733;27;20688;-43
2023/05/11 00:15:47;;;;;;;5.20;4.77;;;;;;;13.89;62.27;94783.84;5132893;27;20215;-46
2023/05/11 00:18:13;;;;;;;5.50;4.67;;;;;;;13.97;62.39;94792.38;5132711;27;20599;-43
2023/05/11 00:20:40;;;;;;;4.97;4.47;;;;;;;13.96;62.24;94792.56;5132601;27;20612;-43
2023/05/11 00:23:07;;;;;;;4.77;4.37;;;;;;;13.90;62.10;94786.25;5132756;27;20191;-44
2023/05/11 00:25:34;;;;;;;4.07;3.77;;;;;;;13.92;62.48;94788.69;5132397;27;20223;-44
2023/05/11 00:28:02;;;;;;;3.97;3.43;;;;;;;13.90;62.33;94793.16;5132624;27;20729;-47
2023/05/11 00:30:29;;;;;;;4.83;4.43;;;;;;;13.85;62.34;94782.53;5131986;27;20182;-45
2023/05/11 00:32:56;;;;;;;5.10;4.03;;;;;;;13.86;62.31;94784.16;5132079;27;20676;-46
2023/05/11 00:35:23;;;;;;;5.73;4.23;;;;;;;13.83;62.48;94785.28;5132247;27;20200;-44
2023/05/11 00:37:50;;;;;;;5.83;4.30;;;;;;;13.80;62.54;94791.53;5132006;27;20199;-46
2023/05/11 00:40:17;;;;;;;4.60;4.20;;;;;;;13.85;62.35;94796.19;5132170;27;20181;-47
2023/05/11 00:42:44;;;;;;;5.50;4.43;;;;;;;13.85;62.43;94797.97;5131895;27;20580;-45
2023/05/11 00:45:12;;;;;;;4.30;4.00;;;;;;;13.68;62.52;94774.75;5132101;27;20225;-49
2023/05/11 00:47:39;;;;;;;4.60;4.20;;;;;;;13.83;62.44;94800.69;5132406;27;20193;-45
2023/05/11 00:50:07;;;;;;;4.43;4.03;;;;;;;13.68;62.50;94781.66;5133042;27;20188;-45
2023/05/11 00:52:34;;;;;;;4.90;4.07;;;;;;;13.81;62.45;94808.53;5131706;27;20195;-46
2023/05/11 00:55:01;;;;;;;4.93;4.40;;;;;;;13.80;62.60;94809.50;5131884;27;20193;-47
2023/05/11 00:57:30;;;;;;;5.60;4.57;;;;;;;13.79;62.53;94801.97;5131662;27;20183;-44
2023/05/11 00:59:57;;;;;;;4.50;4.10;;;;;;;13.54;62.54;94768.44;5131477;27;20184;-45
2023/05/11 01:02:25;;;;;;;7.43;4.37;;;;;;;13.77;62.59;94806.44;5131418;27;20253;-45
2023/05/11 01:04:52;;;;;;;6.10;4.67;;;;;;;13.77;62.58;94801.31;5131567;27;20617;-45
2023/05/11 01:07:24;;;;;;;5.77;4.67;;;;;;;13.74;62.80;94805.00;5132076;27;20235;-44
2023/05/11 01:09:58;;;;;;;7.30;4.87;;;;;;;13.73;62.73;94797.44;5131838;27;20180;-44
2023/05/11 01:12:33;;;;;;;5.23;4.73;;;;;;;13.72;62.67;94804.34;5130612;27;20175;-48
2023/05/11 01:15:08;;;;;;;4.67;4.20;;;;;;;13.16;62.92;94718.31;5131491;27;20215;-47
2023/05/11 01:17:44;;;;;;;5.07;4.67;;;;;;;13.70;62.97;94802.91;5131170;27;20191;-44
2023/05/11 01:20:17;;;;;;;5.00;4.47;;;;;;;13.68;62.97;94800.47;5131584;27;20176;-47
2023/05/11 01:22:55;;;;;;;4.70;4.30;;;;;;;13.45;62.85;94766.00;5131204;27;20236;-44
2023/05/11 01:25:40;;;;;;;4.90;4.50;;;;;;;13.50;63.16;94774.84;5131292;27;20235;-44
2023/05/11 01:28:26;;;;;;;6.57;5.20;;;;;;;13.50;63.17;94789.47;5131350;27;20194;-45
2023/05/11 01:30:57;;;;;;;4.90;4.50;;;;;;;13.62;63.07;94801.09;5130587;27;20235;-43
2023/05/11 01:33:31;;;;;;;5.27;4.77;;;;;;;13.56;62.96;94799.16;5131974;27;20204;-48
2023/05/11 01:36:04;;;;;;;6.47;5.07;;;;;;;13.48;63.09;94787.06;5133049;27;20211;-46
2023/05/11 01:38:32;;;;;;;5.27;4.73;;;;;;;13.59;63.10;94803.97;5134479;27;20195;-43
2023/05/11 01:41:03;;;;;;;4.93;4.43;;;;;;;13.58;63.21;94797.22;5132030;27;20241;-44
2023/05/11 01:43:32;;;;;;;5.57;4.60;;;;;;;13.58;63.15;94801.56;5130890;27;20188;-42
2023/05/11 01:46:01;;;;;;;5.47;4.70;;;;;;;13.55;63.14;94795.75;5130586;27;20204;-43
2023/05/11 01:48:33;;;;;;;5.53;5.03;;;;;;;13.55;63.23;94800.09;5130836;27;20199;-47
2023/05/11 01:51:02;;;;;;;5.83;5.30;;;;;;;13.46;63.08;94783.00;5131244;27;20565;-43
2023/05/11 01:53:34;;;;;;;5.13;4.70;;;;;;;13.54;62.96;94816.47;5131138;27;20605;-42
2023/05/11 01:56:02;;;;;;;5.70;5.20;;;;;;;13.53;63.07;94784.81;5130139;27;20255;-43
2023/05/11 01:58:30;;;;;;;5.43;5.03;;;;;;;13.42;62.88;94779.94;5130550;27;20187;-43
2023/05/11 02:00:59;;;;;;;5.43;4.90;;;;;;;13.53;62.96;94796.88;5130307;27;20196;-45
2023/05/11 02:03:29;;;;;;;5.37;4.87;;;;;;;13.47;63.01;94788.03;5130674;27;20296;-44
2023/05/11 02:05:58;;;;;;;6.10;5.47;;;;;;;13.51;62.86;94794.47;5130361;27;20633;-44
2023/05/11 02:08:27;;;;;;;5.40;4.90;;;;;;;13.50;62.89;94785.13;5130191;27;20203;-42
2023/05/11 02:10:56;;;;;;;5.80;5.30;;;;;;;13.49;62.85;94791.22;5130291;27;20196;-42
2023/05/11 02:13:24;;;;;;;9.60;4.87;;;;;;;13.48;62.91;94781.91;5130541;27;20224;-46
2023/05/11 02:15:53;;;;;;;5.23;4.73;;;;;;;13.46;62.81;94785.59;5130783;27;20207;-46
2023/05/11 02:18:21;;;;;;;5.83;5.20;;;;;;;13.47;62.78;94793.16;5130050;27;20184;-45
2023/05/11 02:20:50;;;;;;;6.03;5.47;;;;;;;13.46;62.73;94780.44;5130282;27;20257;-43
2023/05/11 02:23:19;;;;;;;7.87;5.37;;;;;;;13.46;62.71;94788.16;5128778;27;20215;-44
2023/05/11 02:25:48;;;;;;;5.90;5.30;;;;;;;13.44;62.73;94775.47;5130149;27;20216;-44
2023/05/11 02:28:14;;;;;;;5.20;4.80;;;;;;;13.43;62.64;94784.16;5130276;27;20195;-43
2023/05/11 02:30:45;;;;;;;6.00;5.40;;;;;;;13.43;62.41;94779.00;5130275;27;20189;-46
2023/05/11 02:33:26;;;;;;;5.73;5.10;;;;;;;13.34;62.50;94772.19;5111487;27;20194;-46
2023/05/11 02:35:56;;;;;;;7.37;5.03;;;;;;;13.41;62.44;94777.53;5130209;27;20210;-45
2023/05/11 02:38:28;;;;;;;5.30;4.90;;;;;;;13.41;62.43;94786.03;5129935;27;20272;-45
2023/05/11 02:41:00;;;;;;;6.43;5.43;;;;;;;13.39;62.31;94780.28;5130329;27;20561;-45
2023/05/11 02:43:33;;;;;;;5.03;4.63;;;;;;;13.39;62.21;94787.16;5129619;27;20184;-45
2023/05/11 02:46:03;;;;;;;6.10;5.50;;;;;;;13.35;62.17;94781.53;5130199;27;20260;-44
2023/05/11 02:48:34;;;;;;;6.53;5.17;;;;;;;13.36;62.20;94774.63;5130900;28;20542;-45
2023/05/11 02:51:06;;;;;;;4.90;4.50;;;;;;;13.35;62.25;94789.25;5130188;28;20276;-44
2023/05/11 02:53:34;;;;;;;5.83;4.73;;;;;;;13.16;62.06;94750.88;5129728;28;20579;-44
2023/05/11 02:56:02;;;;;;;5.03;4.60;;;;;;;13.20;62.17;94767.59;5130230;28;20185;-45
2023/05/11 02:58:29;;;;;;;6.97;4.90;;;;;;;13.31;61.96;94785.34;5130194;28;20196;-48
2023/05/11 03:00:56;;;;;;;5.60;4.90;;;;;;;13.29;62.10;94784.69;5130258;28;20192;-47
2023/05/11 03:03:23;;;;;;;5.27;4.70;;;;;;;13.26;62.02;94778.13;5129924;28;20557;-43
2023/05/11 03:05:50;;;;;;;5.20;4.73;;;;;;;13.30;62.05;94788.91;5129894;28;20188;-44
2023/05/11 03:08:19;;;;;;;5.17;4.50;;;;;;;13.29;62.04;94784.69;5129457;28;20271;-44
2023/05/11 03:10:47;;;;;;;5.00;4.60;;;;;;;13.29;61.95;94784.69;5130135;28;20188;-47
2023/05/11 03:13:15;;;;;;;5.10;4.60;;;;;;;13.27;61.90;94784.84;5130443;28;20192;-45
2023/05/11 03:15:43;;;;;;;5.23;4.73;;;;;;;13.24;61.99;94784.34;5130347;28;20203;-45
2023/05/11 03:18:11;;;;;;;5.43;4.93;;;;;;;13.26;61.81;94793.53;5129609;28;20192;-41
2023/05/11 03:20:41;;;;;;;6.47;4.90;;;;;;;13.24;61.96;94781.78;5129781;28;20188;-41
2023/05/11 03:23:09;;;;;;;8.87;4.97;;;;;;;13.06;61.96;94769.75;5129188;28;20184;-46
2023/05/11 03:25:38;;;;;;;5.27;4.83;;;;;;;13.18;61.99;94796.00;5129743;28;20228;-45
2023/05/11 03:28:06;;;;;;;5.37;4.87;;;;;;;13.22;62.10;94792.22;5129656;28;20196;-46
2023/05/11 03:30:34;;;;;;;5.27;4.77;;;;;;;13.23;61.94;94790.44;5129797;28;20276;-46
2023/05/11 03:33:01;;;;;;;5.60;5.10;;;;;;;13.23;61.94;94798.16;5129300;28;20242;-45
2023/05/11 03:35:31;;;;;;;6.60;4.90;;;;;;;13.22;62.13;94794.78;5132985;27;20223;-44
2023/05/11 03:37:59;;;;;;;7.57;4.83;;;;;;;13.09;61.87;94768.66;5133352;27;20576;-41
2023/05/11 03:40:28;;;;;;;5.37;4.90;;;;;;;13.23;61.95;94806.66;5133758;27;20516;-44
2023/05/11 03:42:59;;;;;;;5.50;5.10;;;;;;;13.24;61.99;94794.63;5134015;27;20698;-48
2023/05/11 03:45:28;;;;;;;6.37;4.30;;;;;;;13.24;61.84;94799.75;5133537;27;20622;-42
2023/05/11 03:47:57;;;;;;;5.27;4.77;;;;;;;13.25;61.92;94798.78;5133577;27;20197;-46
2023/05/11 03:50:24;;;;;;;6.60;4.90;;;;;;;13.24;61.82;94792.84;5133589;27;20184;-46
2023/05/11 03:52:52;;;;;;;6.87;4.70;;;;;;;13.24;61.83;94802.31;5133640;27;20181;-45
2023/05/11 03:55:19;;;;;;;5.80;5.30;;;;;;;13.24;61.86;94797.19;5133174;27;20696;-44
2023/05/11 03:57:47;;;;;;;7.50;5.20;;;;;;;13.28;61.86;94808.78;5133431;27;20195;-45
2023/05/11 04:00:16;;;;;;;5.73;4.93;;;;;;;13.28;61.89;94804.44;5133099;27;20192;-44
2023/05/11 04:02:43;;;;;;;6.67;5.37;;;;;;;13.29;61.74;94811.19;5133457;27;20228;-45
2023/05/11 04:05:11;;;;;;;5.57;5.00;;;;;;;13.30;61.82;94810.25;5132907;27;20643;-44
2023/05/11 04:07:39;;;;;;;5.80;4.97;;;;;;;13.31;61.73;94816.19;5132940;27;20196;-43
2023/05/11 04:10:07;;;;;;;6.20;5.60;;;;;;;13.23;61.80;94801.53;5132758;27;20199;-44
2023/05/11 04:12:34;;;;;;;5.87;5.33;;;;;;;13.31;61.89;94816.19;5132806;27;20184;-45
2023/05/11 04:15:01;;;;;;;5.77;5.27;;;;;;;13.34;61.92;94822.75;5132175;27;20223;-45
2023/05/11 04:17:29;;;;;;;6.30;5.70;;;;;;;13.33;61.91;94824.53;5132886;27;20633;-43
2023/05/11 04:19:55;;;;;;;5.37;4.87;;;;;;;13.32;61.78;94825.50;5132600;27;20199;-45
2023/05/11 04:22:22;;;;;;;5.60;4.90;;;;;;;13.34;61.90;94830.47;5133105;27;20189;-44
2023/05/11 04:24:49;;;;;;;6.07;5.47;;;;;;;13.30;61.85;94817.16;5132317;27;20239;-43
2023/05/11 04:27:16;;;;;;;6.37;4.97;;;;;;;13.36;61.72;94831.13;5132637;27;20672;-48
2023/05/11 04:29:43;;;;;;;7.73;5.50;;;;;;;13.38;61.68;94835.16;5132362;27;20233;-42
2023/05/11 04:32:10;;;;;;;5.87;5.37;;;;;;;13.40;61.81;94846.09;5131949;27;20195;-45
2023/05/11 04:34:38;;;;;;;6.03;5.00;;;;;;;13.41;61.76;94839.19;5132429;27;20230;-46
2023/05/11 04:37:06;;;;;;;5.93;5.33;;;;;;;13.41;61.77;94845.13;5132549;27;20185;-46
2023/05/11 04:39:33;;;;;;;8.17;5.40;;;;;;;13.41;62.00;94837.41;5132225;27;20293;-45
2023/05/11 04:42:00;;;;;;;8.30;5.37;;;;;;;13.27;61.93;94812.31;5132580;27;20188;-45
2023/05/11 04:44:27;;;;;;;5.83;5.33;;;;;;;13.46;61.80;94847.25;5132759;27;20180;-43
2023/05/11 04:46:55;;;;;;;6.40;5.77;;;;;;;13.24;61.90;94810.03;5131590;27;20313;-45
2023/05/11 04:49:22;;;;;;;6.63;6.03;;;;;;;13.47;61.93;94846.28;5131488;27;20188;-46
2023/05/11 04:51:50;;;;;;;6.53;6.03;;;;;;;13.46;61.77;94845.47;5133326;27;20189;-45
2023/05/11 04:54:17;;;;;;;7.03;5.93;;;;;;;13.54;61.88;94847.28;5132569;27;20252;-42
2023/05/11 04:56:44;;;;;;;6.60;6.03;;;;;;;13.54;61.95;94845.53;5131338;27;20675;-44
2023/05/11 04:59:10;;;;;;;7.77;6.40;;;;;;;13.60;61.79;94848.44;5132008;27;20279;-41
2023/05/11 05:01:37;;;;;;;8.17;6.40;;;;;;;13.63;61.82;94851.50;5131859;27;20206;-41
2023/05/11 05:04:04;;;;;;;11.30;6.37;;;;;;;13.67;61.77;94857.16;5131749;27;20176;-42
2023/05/11 05:06:31;;;;;;;7.03;6.43;;;;;;;13.71;61.81;94858.47;5131731;27;20248;-44
2023/05/11 05:08:59;;;;;;;6.07;5.60;;;;;;;13.72;61.67;94858.31;5131638;27;20185;-43
2023/05/11 05:11:26;;;;;;;6.80;6.23;;;;;;;13.79;61.79;94861.09;5131277;27;20192;-42
2023/05/11 05:13:54;;;;;;;8.23;6.53;;;;;;;13.85;61.62;94864.81;5131587;27;20180;-45
2023/05/11 05:16:21;;;;;;;8.67;7.87;;;;;;;13.89;61.61;94872.06;5132180;27;20569;-46
2023/05/11 05:18:48;;;;;;;7.10;6.50;;;;;;;13.93;61.61;94873.34;5131190;27;20679;-44
2023/05/11 05:21:14;;;;;;;8.33;7.40;;;;;;;13.99;61.44;94870.19;5131260;27;20194;-43
2023/05/11 05:23:41;;;;;;;14.20;8.43;;;;;;;14.04;61.51;94867.16;5131496;27;20203;-43
2023/05/11 05:26:10;;;;;;;7.73;7.07;;;;;;;14.09;61.42;94869.25;5130928;27;20288;-43
2023/05/11 05:28:37;;;;;;;9.73;8.80;;;;;;;14.12;61.40;94874.06;5131347;27;20197;-44
2023/05/11 05:31:04;;;;;;;9.03;8.10;;;;;;;14.16;61.50;94872.81;5131317;27;20191;-45
2023/05/11 05:33:31;;;;;;;10.33;8.53;;;;;;;14.19;61.28;94882.78;5131434;27;20188;-43
2023/05/11 05:35:58;;;;;;;9.03;8.17;;;;;;;14.24;61.44;94889.06;5132560;27;20272;-44
2023/05/11 05:38:25;;;;;;;10.00;9.10;;;;;;;14.30;61.28;94873.03;5133790;27;20608;-43
2023/05/11 05:40:55;;;;;;;9.87;8.97;;;;;;;14.37;60.85;94872.41;5134540;27;20180;-45
2023/05/11 05:43:23;;;;;;;10.87;8.90;;;;;;;14.44;60.84;94866.47;5134160;27;20185;-42
2023/05/11 05:45:50;;;;;;;9.13;8.30;;;;;;;14.59;60.92;94873.59;5130983;27;20184;-44
2023/05/11 05:48:17;;;;;;;10.13;9.07;;;;;;;14.69;60.65;94887.97;5131214;27;20233;-41
2023/05/11 05:50:43;;;;;;;10.20;8.77;;;;;;;14.78;60.44;94884.44;5130905;27;20200;-44
2023/05/11 05:53:10;;;;;;;9.90;8.93;;;;;;;14.86;60.31;94878.50;5131528;27;20188;-43
2023/05/11 05:55:37;;;;;;;9.43;8.50;;;;;;;14.96;60.10;94888.66;5131070;27;20212;-43
2023/05/11 05:58:04;;;;;;;9.33;8.33;;;;;;;15.04;59.87;94883.50;5131368;27;20185;-44
2023/05/11 06:00:32;;;;;;;9.30;8.40;;;;;;;15.12;59.87;94893.00;5130136;27;20180;-42
2023/05/11 06:02:59;;;;;;;9.83;8.93;;;;;;;15.19;59.75;94878.50;5131048;27;20193;-44
2023/05/11 06:05:26;;;;;;;8.07;7.27;;;;;;;15.26;59.46;94882.84;5130981;27;20188;-44
2023/05/11 06:07:53;;;;;;;11.57;9.03;;;;;;;15.36;59.30;94885.25;5131025;27;20193;-45
2023/05/11 06:10:20;;;;;;;10.27;8.50;;;;;;;15.43;59.01;94893.16;5130841;27;20185;-46
2023/05/11 06:12:46;;;;;;;11.00;8.93;;;;;;;15.50;59.03;94889.78;5130464;27;20208;-44
2023/05/11 06:15:13;;;;;;;9.73;8.73;;;;;;;15.56;58.81;94893.47;5125193;27;20200;-44
2023/05/11 06:17:42;;;;;;;10.47;9.03;;;;;;;15.57;58.73;94892.50;5129222;27;20193;-43
2023/05/11 06:20:14;;;;;;;9.07;8.23;;;;;;;15.68;58.43;94902.50;5129460;27;20191;-43
2023/05/11 06:22:41;;;;;;;9.37;8.47;;;;;;;15.69;58.38;94885.25;5129271;27;20191;-43
2023/05/11 06:25:08;;;;;;;10.03;8.97;;;;;;;15.79;58.38;94904.72;5129038;27;20228;-43
2023/05/11 06:27:35;;;;;;;9.40;8.50;;;;;;;15.87;58.04;94903.91;5128750;27;20649;-44
2023/05/11 06:30:01;;;;;;;10.03;9.03;;;;;;;15.95;58.03;94900.53;5129032;27;20203;-44
2023/05/11 06:32:28;;;;;;;9.03;8.13;;;;;;;16.01;57.59;94907.59;5129349;27;20193;-43
2023/05/11 06:34:56;;;;;;;9.87;8.90;;;;;;;16.07;57.46;94917.25;5128216;27;20283;-44
2023/05/11 06:37:23;;;;;;;9.30;8.40;;;;;;;16.12;57.20;94901.28;5129265;27;20188;-45
2023/05/11 06:39:52;;;;;;;9.63;8.67;;;;;;;16.24;57.03;94908.50;5129876;27;20192;-45
2023/05/11 06:42:18;;;;;;;10.00;9.07;;;;;;;16.35;56.93;94920.22;5128635;27;20203;-42
2023/05/11 06:44:45;;;;;;;9.63;8.73;;;;;;;16.35;56.82;94903.94;5129526;27;20265;-44
2023/05/11 06:47:12;;;;;;;8.83;7.90;;;;;;;16.47;56.61;94915.50;5126192;27;20672;-43
2023/05/11 06:49:41;;;;;;;9.73;8.73;;;;;;;16.46;56.33;94901.78;5126586;27;20192;-45
2023/05/11 06:52:09;;;;;;;11.50;9.33;;;;;;;16.58;56.33;94903.97;5126908;28;20275;-43
2023/05/11 06:54:36;;;;;;;9.90;8.90;;;;;;;16.69;56.22;94911.34;5129351;28;20236;-44
2023/05/11 06:57:03;;;;;;;10.30;9.30;;;;;;;16.79;55.92;94906.78;5130143;28;20198;-46
2023/05/11 06:59:31;;;;;;;10.90;9.90;;;;;;;16.94;55.76;94917.22;5129949;28;20188;-43
2023/05/11 07:01:58;;;;;;;10.03;9.10;;;;;;;17.09;55.35;94912.09;5129567;28;20196;-44
2023/05/11 07:04:25;;;;;;;12.17;9.90;;;;;;;17.15;55.06;94893.34;5111773;28;20241;-43
2023/05/11 07:06:51;;;;;;;9.90;8.80;;;;;;;17.47;54.82;94913.75;5127457;28;20659;-44
2023/05/11 07:09:19;;;;;;;11.90;10.70;;;;;;;17.66;54.34;94899.53;5129721;27;20206;-43
2023/05/11 07:11:46;;;;;;;11.47;9.80;;;;;;;17.90;54.11;94915.81;5133578;27;20180;-42
2023/05/11 07:14:13;;;;;;;11.70;10.60;;;;;;;18.21;53.60;94913.06;5133508;27;20196;-45
2023/05/11 07:16:40;;;;;;;16.50;10.10;;;;;;;18.47;53.29;94920.34;5133246;27;20220;-44
2023/05/11 07:19:08;;;;;;;10.77;9.70;;;;;;;18.67;53.08;94902.47;5133005;27;20592;-45
2023/05/11 07:21:35;;;;;;;10.97;9.43;;;;;;;18.92;52.50;94921.13;5131026;27;20605;-43
2023/05/11 07:24:03;;;;;;;11.00;9.97;;;;;;;18.96;52.24;94899.03;5132919;27;20273;-43
2023/05/11 07:26:31;;;;;;;11.53;10.13;;;;;;;19.33;51.83;94918.72;5132734;27;20181;-43
2023/05/11 07:28:58;;;;;;;10.77;9.77;;;;;;;19.51;51.42;94918.25;5131661;27;20197;-45
2023/05/11 07:31:25;;;;;;;10.30;9.33;;;;;;;19.70;51.27;94919.47;5133107;27;20196;-45
2023/05/11 07:33:52;;;;;;;10.73;9.73;;;;;;;19.87;50.96;94909.59;5132369;27;20194;-44
2023/05/11 07:36:19;;;;;;;10.33;9.30;;;;;;;19.89;50.58;94886.84;5133000;27;20211;-44
2023/05/11 07:38:45;;;;;;;10.40;9.47;;;;;;;20.27;50.30;94916.63;5114545;27;20276;-42
2023/05/11 07:41:12;;;;;;;13.07;9.30;;;;;;;20.46;50.02;94924.69;5132684;27;20588;-45
2023/05/11 07:43:40;;;;;;;10.17;9.03;;;;;;;20.58;49.71;94925.00;5126588;27;20200;-43
2023/05/11 07:46:07;;;;;;;9.80;8.90;;;;;;;20.66;49.42;94932.63;5130515;27;20189;-46
2023/05/11 07:48:34;;;;;;;10.27;9.27;;;;;;;20.72;49.15;94930.03;5129906;27;20196;-43
2023/05/11 07:51:02;;;;;;;12.13;9.05;;;;;;;20.78;48.97;94928.47;5129558;27;20254;-43
2023/05/11 07:53:28;;;;;;;10.00;9.00;;;;;;;20.87;48.76;94932.50;5129983;27;20617;-45
2023/05/11 07:55:55;;;;;;;10.25;8.60;;;;;;;20.93;48.67;94946.50;5129502;27;20219;-46
2023/05/11 07:58:22;;;;;;;11.38;8.57;;;;;;;21.03;48.31;94934.75;5130709;27;20196;-46
2023/05/11 08:00:50;;;;;;;9.55;8.48;;;;;;;21.12;47.77;94924.97;5131087;27;20633;-44
2023/05/11 08:03:17;;;;;;;9.00;8.20;;;;;;;21.22;47.98;94942.78;5127655;27;20200;-44
2023/05/11 08:05:43;;;;;;;9.45;8.60;;;;;;;21.30;47.73;94937.41;5126516;27;20181;-45
2023/05/11 08:08:10;;;;;;;9.57;8.68;;;;;;;21.38;47.63;94939.84;5128992;27;20196;-44
2023/05/11 08:10:37;;;;;;;9.10;8.25;;;;;;;21.47;47.14;94924.84;5129543;27;20188;-42
2023/05/11 08:13:04;;;;;;;9.88;8.88;;;;;;;21.59;47.05;94938.88;5129410;27;21645;-44
2023/05/11 08:15:31;;;;;;;8.95;8.05;;;;;;;21.71;46.80;94928.66;5129839;27;20227;-45
2023/05/11 08:17:59;;;;;;;9.13;8.23;;;;;;;21.82;46.50;94925.44;5128640;27;20218;-45
2023/05/11 08:20:26;;;;;;;10.00;9.10;;;;;;;21.94;46.39;94930.84;5129283;27;20195;-43
2023/05/11 08:22:52;;;;;;;9.60;8.73;;;;;;;22.03;46.04;94933.03;5129184;27;20184;-44
2023/05/11 08:25:19;;;;;;;9.80;8.85;;;;;;;22.17;45.86;94933.84;5129152;27;20709;-45
2023/05/11 08:27:46;;;;;;;9.40;8.43;;;;;;;22.29;45.79;94927.00;5129512;27;20248;-43
2023/05/11 08:30:14;;;;;;;8.48;7.78;;;;;;;22.45;45.35;94925.78;5129036;27;20550;-44
2023/05/11 08:32:40;;;;;;;8.85;8.05;;;;;;;22.57;45.26;94930.31;5128767;27;20233;-44
2023/05/11 08:35:09;;;;;;;8.10;7.40;;;;;;;22.68;45.03;94933.09;5128696;27;20185;-43
2023/05/11 08:37:36;;;;;;;8.63;7.82;;;;;;;22.76;44.80;94937.28;5128950;27;20236;-45
2023/05/11 08:40:03;;;;;;;8.48;7.68;;;;;;;22.72;44.89;94913.44;5129243;27;20547;-47
2023/05/11 08:42:33;;;;;;;8.10;7.30;;;;;;;22.79;44.56;94929.81;5128850;27;20218;-45
2023/05/11 08:45:02;;;;;;;8.15;6.65;;;;;;;22.85;44.12;94932.63;5129065;27;20184;-44
2023/05/11 08:47:30;;;;;;;7.90;7.20;;;;;;;22.88;44.32;94925.16;5129362;27;20210;-44
2023/05/11 08:49:57;;;;;;;8.73;7.80;;;;;;;22.95;44.17;94935.63;5128198;27;20181;-44
2023/05/11 08:52:25;;;;;;;8.35;7.55;;;;;;;23.01;43.76;94935.59;5128751;27;20184;-47
2023/05/11 08:54:52;;;;;;;7.93;7.22;;;;;;;23.09;43.70;94938.97;5128544;27;20199;-46
2023/05/11 08:57:19;;;;;;;6.88;6.28;;;;;;;23.21;43.80;94924.22;5128886;27;20218;-45
2023/05/11 08:59:46;;;;;;;8.27;6.95;;;;;;;23.32;43.36;94931.41;5128053;27;20254;-46
2023/05/11 09:02:18;;;;;;;7.30;6.80;;;;;;;23.42;43.29;94928.31;5129211;27;20192;-52
2023/05/11 09:04:46;;;;;;;7.53;6.82;;;;;;;23.46;43.19;94929.50;5128360;27;20595;-42
2023/05/11 09:07:15;;;;;;;7.05;6.45;;;;;;;23.40;42.68;94912.88;5128483;27;20195;-44
2023/05/11 09:09:43;;;;;;;8.77;6.47;;;;;;;23.51;42.89;94919.22;5128160;27;20288;-44
2023/05/11 09:12:12;;;;;;;7.07;6.40;;;;;;;23.51;42.81;94920.00;5127952;27;20192;-44
2023/05/11 09:14:38;;;;;;;7.80;7.10;;;;;;;23.48;42.82;94915.22;5128258;27;20212;-44
2023/05/11 09:17:05;;;;;;;11.90;6.30;;;;;;;23.52;42.42;94912.97;5128377;27;20208;-43
2023/05/11 09:19:32;;;;;;;7.07;6.38;;;;;;;23.58;42.31;94914.75;5127674;27;20295;-44
2023/05/11 09:22:00;;;;;;;6.80;6.05;;;;;;;23.64;42.26;94920.94;5128183;27;20192;-46
2023/05/11 09:24:26;;;;;;;10.55;6.75;;;;;;;23.71;42.43;94926.94;5128106;27;20670;-46
2023/05/11 09:27:08;;;;;;;6.40;5.90;;;;;;;23.69;42.11;94929.75;5127894;27;20188;-46
2023/05/11 09:29:35;;;;;;;6.88;6.28;;;;;;;23.65;42.31;94927.78;5125460;27;20280;-47
2023/05/11 09:32:01;;;;;;;6.38;5.80;;;;;;;23.61;42.20;94921.34;5127903;27;20184;-44
2023/05/11 09:34:28;;;;;;;5.78;5.32;;;;;;;23.59;42.27;94921.56;5129541;27;20227;-45
2023/05/11 09:36:57;;;;;;;6.88;6.18;;;;;;;23.58;42.28;94924.41;5129437;27;20223;-47
2023/05/11 09:39:31;;;;;;;6.35;5.80;;;;;;;23.62;42.08;94917.72;5127799;27;20196;-47
2023/05/11 09:42:17;;;;;;;6.05;5.55;;;;;;;23.70;41.83;94912.25;5128153;27;20283;-45
2023/05/11 09:44:44;;;;;;;6.50;5.90;;;;;;;23.61;41.95;94890.00;5125607;27;20695;-44
2023/05/11 09:47:12;;;;;;;7.45;5.63;;;;;;;23.81;41.79;94897.72;5128530;27;20634;-44
2023/05/11 09:49:41;;;;;;;7.85;5.53;;;;;;;23.97;41.77;94920.69;5127482;27;20276;-44
2023/05/11 09:52:10;;;;;;;6.05;5.55;;;;;;;23.95;41.89;94913.03;5127512;27;20279;-46
2023/05/11 09:54:42;;;;;;;6.47;5.90;;;;;;;23.97;41.85;94903.19;5127637;27;20268;-44
2023/05/11 09:57:24;;;;;;;6.18;5.57;;;;;;;24.01;41.81;94906.97;5127257;27;20212;-44
2023/05/11 09:59:51;;;;;;;6.45;5.85;;;;;;;24.03;41.64;94904.13;5126743;27;20636;-45
2023/05/11 10:02:21;;;;;;;6.70;5.57;;;;;;;24.07;41.75;94900.06;5127557;27;20403;-44
2023/05/11 10:04:48;;;;;;;5.68;5.05;;;;;;;24.11;41.45;94903.84;5108178;27;20192;-44
2023/05/11 10:07:28;;;;;;;6.95;5.70;;;;;;;24.13;41.38;94903.63;5127246;27;20188;-46
2023/05/11 10:09:57;;;;;;;5.88;5.38;;;;;;;24.12;41.44;94904.66;5127014;27;20196;-45
2023/05/11 10:12:26;;;;;;;5.63;4.70;;;;;;;24.11;41.38;94903.06;5127625;27;20185;-46
2023/05/11 10:14:56;;;;;;;5.85;5.35;;;;;;;24.11;41.24;94890.78;5126370;27;20195;-45
2023/05/11 10:17:23;;;;;;;6.43;4.80;;;;;;;24.13;41.30;94888.75;5127139;27;20214;-45
2023/05/11 10:19:50;;;;;;;5.28;4.88;;;;;;;24.18;41.25;94891.53;5126566;27;20242;-45
2023/05/11 10:22:17;;;;;;;5.28;4.78;;;;;;;24.14;41.03;94882.53;5127246;27;20204;-45
2023/05/11 10:24:44;;;;;;;5.00;4.60;;;;;;;24.21;40.99;94882.44;5126696;27;20309;-44
2023/05/11 10:27:12;;;;;;;5.40;4.90;;;;;;;24.24;41.12;94897.69;5127075;27;20676;-45
2023/05/11 10:29:43;;;;;;;5.38;4.88;;;;;;;24.30;41.09;94894.19;5126587;27;20200;-45
2023/05/11 10:32:11;;;;;;;5.22;4.72;;;;;;;24.37;41.06;94871.44;5126623;27;20199;-44
2023/05/11 10:34:38;;;;;;;5.40;4.90;;;;;;;24.51;40.94;94888.56;5127370;27;20204;-45
2023/05/11 10:37:06;;;;;;;5.18;4.60;;;;;;;24.41;40.82;94853.50;5126704;27;20224;-46
2023/05/11 10:39:33;;;;;;;5.65;4.82;;;;;;;24.61;40.80;94866.31;5127168;27;20287;-44
2023/05/11 10:42:21;;;;;;;5.15;4.75;;;;;;;24.64;40.58;94866.69;5125894;27;20236;-45
2023/05/11 10:45:02;;;;;;;7.82;4.97;;;;;;;24.57;40.36;94876.44;5122676;27;20245;-45
2023/05/11 10:47:45;;;;;;;5.45;4.95;;;;;;;24.50;40.77;94868.66;5125414;27;20200;-46
2023/05/11 10:50:36;;;;;;;6.13;4.47;;;;;;;24.46;40.65;94872.75;5124896;28;20188;-47
2023/05/11 10:53:33;;;;;;;5.22;4.82;;;;;;;24.46;40.72;94891.03;5126418;28;20296;-44
2023/05/11 10:56:15;;;;;;;5.63;5.13;;;;;;;24.51;40.73;94885.16;5125673;28;20176;-44
2023/05/11 10:59:02;;;;;;;4.78;4.35;;;;;;;24.53;40.55;94891.78;5126535;28;20204;-46
2023/05/11 11:01:38;;;;;;;5.53;5.00;;;;;;;24.38;40.58;94849.50;5124858;28;20207;-46
2023/05/11 11:04:07;;;;;;;4.97;4.57;;;;;;;24.60;40.66;94875.19;5127120;28;20196;-45
2023/05/11 11:06:34;;;;;;;4.60;4.20;;;;;;;24.39;40.38;94842.44;5126595;28;20184;-45
2023/05/11 11:09:04;;;;;;;5.38;4.88;;;;;;;24.53;40.77;94880.50;5126904;28;20673;-44
2023/05/11 11:11:34;;;;;;;4.65;4.25;;;;;;;24.45;40.80;94879.00;5126464;28;20569;-44
2023/05/11 11:14:04;;;;;;;4.82;4.43;;;;;;;24.41;40.59;94877.84;5125904;28;20192;-44
2023/05/11 11:16:31;;;;;;;4.63;4.22;;;;;;;24.34;40.40;94877.06;5126186;28;20223;-45
2023/05/11 11:19:35;;;;;;;4.60;4.22;;;;;;;24.31;40.54;94872.28;5125610;28;20219;-50
2023/05/11 11:22:03;;;;;;;6.32;4.22;;;;;;;24.27;40.76;94871.13;5126105;28;20899;-45
2023/05/11 11:24:51;;;;;;;4.95;4.55;;;;;;;24.26;40.24;94874.75;5126563;28;20235;-43
2023/05/11 11:27:17;;;;;;;4.80;4.40;;;;;;;24.17;40.45;94863.78;5022954;28;20253;-45
2023/05/11 11:30:18;;;;;;;6.38;4.25;;;;;;;24.23;40.32;94864.75;5022825;28;20200;-45
2023/05/11 11:32:45;;;;;;;5.80;4.32;;;;;;;24.18;40.40;94852.34;5022918;28;20242;-46
2023/05/11 11:35:46;;;;;;;4.47;4.15;;;;;;;24.05;40.56;94844.63;5022525;28;20211;-48
2023/05/11 11:38:15;;;;;;;4.78;4.10;;;;;;;23.94;40.74;94846.16;5022142;28;20219;-45
2023/05/11 11:40:43;;;;;;;4.78;4.38;;;;;;;23.93;40.63;94852.38;5022401;28;20386;-44